createdAt,value
2022-10-05T00:01:23.803Z,4.37
2022-10-05T00:03:53.877Z,4.63
2022-10-05T00:06:23.449Z,4.27
2022-10-05T00:08:51.429Z,4.40
2022-10-05T00:11:19.427Z,4.20
2022-10-05T00:13:47.506Z,4.30
2022-10-05T00:16:19.527Z,3.90
2022-10-05T00:18:51.318Z,4.40
2022-10-05T00:21:26.201Z,4.53
2022-10-05T00:23:59.628Z,3.83
2022-10-05T00:26:33.218Z,4.43
2022-10-05T00:29:03.041Z,3.93
2022-10-05T00:31:33.760Z,4.30
2022-10-05T00:34:01.978Z,3.50
2022-10-05T00:36:31.381Z,3.80
2022-10-05T00:39:02.947Z,3.90
2022-10-05T00:41:43.011Z,4.23
2022-10-05T00:44:33.355Z,4.37
2022-10-05T00:47:22.529Z,4.53
2022-10-05T00:50:40.563Z,4.20
2022-10-05T00:53:25.669Z,3.50
2022-10-05T00:56:04.226Z,4.27
2022-10-05T00:58:46.237Z,4.00
2022-10-05T01:01:18.095Z,4.37
2022-10-05T01:04:01.487Z,4.43
2022-10-05T01:06:44.807Z,3.73
2022-10-05T01:09:23.752Z,4.87
2022-10-05T01:12:03.688Z,4.20
2022-10-05T01:14:44.369Z,4.10
2022-10-05T01:17:20.096Z,3.90
2022-10-05T01:20:25.546Z,4.37
2022-10-05T01:23:30.130Z,3.97
2022-10-05T01:26:19.954Z,4.23
2022-10-05T01:28:59.991Z,4.13
2022-10-05T01:31:42.575Z,4.30
2022-10-05T01:34:22.359Z,3.97
2022-10-05T01:37:01.709Z,4.13
2022-10-05T01:39:43.636Z,3.97
2022-10-05T01:42:22.598Z,4.03
2022-10-05T01:45:03.092Z,3.87
2022-10-05T01:47:43.351Z,3.90
2022-10-05T01:50:23.821Z,3.53
2022-10-05T01:53:06.495Z,4.37
2022-10-05T01:55:45.994Z,4.10
2022-10-05T01:58:44.337Z,4.00
2022-10-05T02:01:22.647Z,4.03
2022-10-05T02:03:58.373Z,4.67
2022-10-05T02:06:30.906Z,4.53
2022-10-05T02:09:09.455Z,4.60
2022-10-05T02:11:40.118Z,4.33
2022-10-05T02:14:12.672Z,4.30
2022-10-05T02:16:47.805Z,3.97
2022-10-05T02:19:21.848Z,4.60
2022-10-05T02:21:56.536Z,4.40
2022-10-05T02:24:32.407Z,4.07
2022-10-05T02:27:00.653Z,4.73
2022-10-05T02:29:33.823Z,3.93
2022-10-05T02:32:08.288Z,4.27
2022-10-05T02:34:39.763Z,3.67
2022-10-05T02:37:27.314Z,4.20
2022-10-05T02:40:13.121Z,4.00
2022-10-05T02:42:53.201Z,3.60
2022-10-05T02:45:31.669Z,4.27
2022-10-05T02:48:11.937Z,4.13
2022-10-05T02:50:51.145Z,3.77
2022-10-05T02:53:29.297Z,3.43
2022-10-05T02:56:11.495Z,3.77
2022-10-05T02:58:49.457Z,4.27
2022-10-05T03:01:26.401Z,4.20
2022-10-05T03:04:12.783Z,3.50
2022-10-05T03:06:51.369Z,4.07
2022-10-05T03:09:23.923Z,5.20
2022-10-05T03:12:09.287Z,4.03
2022-10-05T03:14:48.383Z,3.67
2022-10-05T03:17:21.646Z,3.63
2022-10-05T03:20:15.947Z,3.60
2022-10-05T03:22:51.920Z,3.97
2022-10-05T03:26:03.893Z,4.23
2022-10-05T03:28:41.202Z,3.93
2022-10-05T03:31:23.283Z,3.90
2022-10-05T03:33:58.127Z,3.57
2022-10-05T03:36:37.024Z,3.73
2022-10-05T03:39:16.009Z,3.87
2022-10-05T03:41:51.430Z,3.73
2022-10-05T03:44:36.186Z,3.93
2022-10-05T03:47:15.680Z,4.00
2022-10-05T03:49:58.303Z,3.83
2022-10-05T03:52:36.793Z,3.47
2022-10-05T03:55:16.391Z,3.53
2022-10-05T03:57:45.675Z,3.60
2022-10-05T04:00:18.786Z,3.97
2022-10-05T04:03:01.749Z,3.87
2022-10-05T04:05:34.608Z,3.63
2022-10-05T04:08:11.105Z,3.63
2022-10-05T04:10:46.439Z,3.23
2022-10-05T04:13:21.617Z,3.70
2022-10-05T04:15:58.713Z,4.37
2022-10-05T04:18:33.206Z,3.40
2022-10-05T04:21:07.858Z,4.00
2022-10-05T04:23:47.217Z,3.90
2022-10-05T04:26:20.988Z,3.63
2022-10-05T04:28:58.110Z,3.70
2022-10-05T04:31:50.936Z,3.63
2022-10-05T04:34:43.648Z,3.70
2022-10-05T04:37:19.290Z,3.37
2022-10-05T04:40:00.755Z,4.13
2022-10-05T04:42:36.946Z,4.27
2022-10-05T04:45:27.081Z,3.73
2022-10-05T04:48:29.467Z,4.37
2022-10-05T04:51:16.565Z,4.30
2022-10-05T04:53:55.070Z,4.10
2022-10-05T04:56:35.050Z,4.03
2022-10-05T04:59:32.376Z,4.37
2022-10-05T05:02:14.145Z,4.00
2022-10-05T05:05:15.921Z,4.60
2022-10-05T05:07:55.007Z,4.30
2022-10-05T05:10:53.593Z,4.17
2022-10-05T05:14:16.906Z,3.80
2022-10-05T05:16:51.084Z,4.10
2022-10-05T05:19:46.256Z,3.77
2022-10-05T05:22:26.727Z,3.73
2022-10-05T05:25:23.014Z,3.67
2022-10-05T05:27:56.473Z,3.70
2022-10-05T05:30:39.991Z,3.90
2022-10-05T05:33:20.609Z,3.57
2022-10-05T05:36:23.568Z,3.53
2022-10-05T05:39:12.292Z,4.00
2022-10-05T05:41:50.409Z,3.83
2022-10-05T05:44:24.762Z,3.90
2022-10-05T05:47:04.303Z,3.87
2022-10-05T05:49:54.175Z,3.90
2022-10-05T05:52:29.577Z,3.80
2022-10-05T05:55:03.311Z,3.30
2022-10-05T05:57:40.156Z,3.40
2022-10-05T06:00:21.171Z,3.37
2022-10-05T06:03:03.479Z,3.73
2022-10-05T06:05:36.539Z,3.90
2022-10-05T06:08:18.695Z,4.17
2022-10-05T06:10:56.270Z,4.10
2022-10-05T06:13:31.078Z,4.20
2022-10-05T06:16:09.336Z,3.53
2022-10-05T06:18:44.243Z,4.67
2022-10-05T06:21:21.690Z,4.40
2022-10-05T06:23:58.418Z,4.20
2022-10-05T06:27:07.990Z,3.73
2022-10-05T06:29:54.793Z,4.53
2022-10-05T06:32:30.063Z,4.90
2022-10-05T06:35:13.161Z,4.63
2022-10-05T06:38:09.404Z,4.80
2022-10-05T06:41:00.240Z,5.13
2022-10-05T06:43:48.397Z,4.60
2022-10-05T06:46:56.759Z,5.57
2022-10-05T06:49:46.623Z,4.90
2022-10-05T06:52:45.867Z,4.93
2022-10-05T06:55:24.838Z,4.83
2022-10-05T06:58:22.023Z,5.60
2022-10-05T07:00:55.027Z,5.43
2022-10-05T07:03:35.383Z,5.27
2022-10-05T07:06:12.747Z,4.73
2022-10-05T07:09:05.145Z,5.10
2022-10-05T07:12:03.683Z,5.93
2022-10-05T07:14:57.305Z,5.77
2022-10-05T07:17:42.497Z,5.23
2022-10-05T07:20:23.535Z,5.37
2022-10-05T07:23:14.497Z,4.53
2022-10-05T07:25:52.305Z,4.77
2022-10-05T07:28:32.331Z,4.73
2022-10-05T07:31:08.488Z,4.33
2022-10-05T07:33:46.887Z,4.60
2022-10-05T07:36:54.587Z,5.00
2022-10-05T07:39:58.627Z,4.23
2022-10-05T07:42:46.058Z,4.57
2022-10-05T07:45:29.131Z,4.97
2022-10-05T07:48:02.010Z,4.73
2022-10-05T07:50:39.702Z,4.80
2022-10-05T07:53:19.562Z,4.90
2022-10-05T07:55:53.337Z,4.27
2022-10-05T07:58:29.842Z,4.50
2022-10-05T08:01:09.141Z,5.30
2022-10-05T08:03:50.029Z,3.90
2022-10-05T08:06:44.254Z,4.03
2022-10-05T08:09:34.534Z,4.70
2022-10-05T08:12:23.933Z,4.10
2022-10-05T08:14:59.105Z,4.80
2022-10-05T08:17:45.159Z,4.00
2022-10-05T08:20:41.595Z,4.40
2022-10-05T08:23:21.998Z,3.77
2022-10-05T08:26:06.334Z,4.10
2022-10-05T08:28:39.274Z,4.10
2022-10-05T08:31:20.138Z,3.87
2022-10-05T08:33:59.618Z,4.20
2022-10-05T08:36:53.623Z,3.67
2022-10-05T08:39:25.590Z,4.47
2022-10-05T08:42:44.963Z,3.57
2022-10-05T08:46:10.896Z,3.10
2022-10-05T08:49:17.692Z,3.37
2022-10-05T08:52:23.574Z,3.10
2022-10-05T08:55:34.723Z,2.93
2022-10-05T08:58:37.595Z,3.03
2022-10-05T09:01:19.452Z,3.20
2022-10-05T09:04:23.869Z,2.47
2022-10-05T09:07:18.551Z,2.60
2022-10-05T09:10:32.458Z,2.23
2022-10-05T09:13:34.403Z,2.27
2022-10-05T09:16:33.264Z,2.43
2022-10-05T09:19:43.316Z,1.87
2022-10-05T09:22:17.600Z,2.40
2022-10-05T09:24:57.304Z,1.67
2022-10-05T09:27:38.215Z,1.77
2022-10-05T09:30:37.342Z,2.00
2022-10-05T09:33:53.799Z,1.50
2022-10-05T09:37:21.039Z,1.50
2022-10-05T09:40:50.647Z,1.60
2022-10-05T09:43:45.958Z,1.77
2022-10-05T09:47:17.823Z,1.63
2022-10-05T09:50:18.818Z,1.90
2022-10-05T09:53:05.956Z,1.53
2022-10-05T09:56:11.115Z,1.83
2022-10-05T09:59:09.925Z,1.67
2022-10-05T10:01:57.288Z,1.60
2022-10-05T10:04:36.521Z,1.53
2022-10-05T10:07:57.715Z,1.80
2022-10-05T10:11:04.634Z,1.70
2022-10-05T10:14:11.621Z,1.40
2022-10-05T10:17:02.026Z,1.50
2022-10-05T10:20:06.641Z,1.67
2022-10-05T10:23:24.210Z,1.40
2022-10-05T10:26:50.238Z,1.20
2022-10-05T10:30:04.771Z,1.20
2022-10-05T10:33:40.560Z,1.37
2022-10-05T10:36:17.968Z,1.30
2022-10-05T10:39:03.566Z,1.60
2022-10-05T10:42:13.951Z,1.30
2022-10-05T10:45:13.621Z,1.60
2022-10-05T10:47:52.013Z,1.50
2022-10-05T10:51:08.047Z,1.27
2022-10-05T10:54:21.117Z,1.40
2022-10-05T10:57:03.120Z,1.50
2022-10-05T11:00:26.936Z,1.43
2022-10-05T11:03:56.909Z,1.27
2022-10-05T11:07:22.477Z,1.80
2022-10-05T11:10:41.361Z,1.40
2022-10-05T11:13:41.204Z,1.60
2022-10-05T11:16:33.045Z,1.17
2022-10-05T11:19:52.838Z,1.70
2022-10-05T11:22:52.902Z,1.43
2022-10-05T11:25:53.621Z,1.53
2022-10-05T11:29:05.270Z,1.50
2022-10-05T11:32:22.132Z,1.80
2022-10-05T11:35:20.570Z,1.60
2022-10-05T11:38:12.888Z,1.67
2022-10-05T11:41:28.300Z,1.90
2022-10-05T11:44:43.096Z,1.60
2022-10-05T11:47:23.512Z,1.60
2022-10-05T11:50:06.437Z,1.67
2022-10-05T11:52:44.862Z,1.80
2022-10-05T11:55:27.316Z,1.70
2022-10-05T11:58:00.746Z,1.80
2022-10-05T12:00:37.272Z,1.60
2022-10-05T12:03:37.203Z,1.73
2022-10-05T12:06:23.317Z,1.70
2022-10-05T12:09:05.843Z,1.90
2022-10-05T12:11:58.329Z,1.80
2022-10-05T12:14:42.749Z,1.43
2022-10-05T12:17:24.378Z,1.73
2022-10-05T12:19:57.604Z,1.70
2022-10-05T12:22:32.839Z,1.50
2022-10-05T12:25:19.351Z,1.73
2022-10-05T12:27:53.238Z,1.47
2022-10-05T12:30:48.105Z,1.40
2022-10-05T12:33:22.200Z,1.50
2022-10-05T12:35:56.776Z,1.80
2022-10-05T12:38:31.276Z,1.50
2022-10-05T12:41:08.578Z,1.43
2022-10-05T12:43:49.694Z,1.30
2022-10-05T12:46:32.762Z,1.30
2022-10-05T12:49:41.741Z,1.40
2022-10-05T12:52:29.113Z,1.83
2022-10-05T12:55:06.329Z,1.43
2022-10-05T12:57:41.951Z,1.23
2022-10-05T13:00:13.565Z,1.30
2022-10-05T13:02:48.370Z,1.40
2022-10-05T13:05:28.784Z,1.30
2022-10-05T13:08:19.009Z,1.60
2022-10-05T13:10:50.181Z,1.80
2022-10-05T13:13:35.403Z,2.00
2022-10-05T13:16:17.823Z,1.97
2022-10-05T13:19:01.266Z,2.23
2022-10-05T13:21:55.221Z,2.30
2022-10-05T13:24:30.784Z,2.00
2022-10-05T13:27:08.422Z,2.00
2022-10-05T13:29:41.367Z,1.90
2022-10-05T13:32:20.293Z,2.23
2022-10-05T13:35:10.576Z,2.03
2022-10-05T13:37:47.600Z,2.07
2022-10-05T13:40:29.810Z,2.50
2022-10-05T13:43:06.970Z,2.50
2022-10-05T13:45:45.858Z,2.80
2022-10-05T13:48:44.061Z,2.57
2022-10-05T13:51:19.402Z,2.20
2022-10-05T13:53:55.978Z,2.63
2022-10-05T13:56:30.876Z,2.30
2022-10-05T13:59:11.838Z,2.30
2022-10-05T14:01:45.025Z,2.63
2022-10-05T14:04:20.750Z,2.00
2022-10-05T14:06:51.805Z,2.13
2022-10-05T14:09:32.474Z,2.10
2022-10-05T14:12:22.912Z,1.70
2022-10-05T14:14:53.695Z,1.97
2022-10-05T14:17:40.622Z,1.90
2022-10-05T14:20:25.190Z,2.20
2022-10-05T14:23:00.671Z,1.90
2022-10-05T14:25:30.803Z,1.80
2022-10-05T14:28:05.441Z,2.67
2022-10-05T14:30:34.975Z,2.63
2022-10-05T14:33:16.884Z,2.60
2022-10-05T14:35:50.001Z,2.20
2022-10-05T14:38:23.383Z,2.30
2022-10-05T14:41:15.616Z,2.07
2022-10-05T14:43:56.428Z,2.20
2022-10-05T14:46:28.995Z,1.90
2022-10-05T14:49:17.510Z,2.33
2022-10-05T14:51:45.548Z,2.10
2022-10-05T14:54:41.771Z,2.23
2022-10-05T14:57:25.465Z,1.70
2022-10-05T15:00:14.306Z,1.10
2022-10-05T15:03:00.841Z,1.17
2022-10-05T15:05:36.106Z,0.90
2022-10-05T15:08:45.139Z,0.57
2022-10-05T15:11:31.825Z,0.63
2022-10-05T15:14:02.379Z,0.70
2022-10-05T15:16:34.177Z,0.97
2022-10-05T15:19:23.457Z,0.80
2022-10-05T15:22:23.095Z,1.30
2022-10-05T15:25:02.590Z,0.80
2022-10-05T15:27:49.224Z,0.90
2022-10-05T15:30:19.330Z,0.87
2022-10-05T15:33:07.569Z,1.10
2022-10-05T15:36:11.320Z,0.90
2022-10-05T15:39:00.192Z,0.83
2022-10-05T15:41:55.269Z,1.10
2022-10-05T15:44:41.866Z,2.43
2022-10-05T15:47:18.941Z,0.90
2022-10-05T15:50:00.660Z,0.90
2022-10-05T15:52:37.182Z,0.97
2022-10-05T15:55:32.083Z,0.93
2022-10-05T15:58:31.727Z,0.77
2022-10-05T16:01:08.177Z,0.80
2022-10-05T16:03:50.336Z,1.20
2022-10-05T16:06:55.857Z,1.00
2022-10-05T16:09:45.861Z,1.73
2022-10-05T16:12:35.036Z,0.90
2022-10-05T16:15:26.230Z,1.07
2022-10-05T16:18:32.454Z,1.00
2022-10-05T16:21:14.086Z,1.00
2022-10-05T16:24:00.180Z,0.83
2022-10-05T16:27:00.295Z,1.13
2022-10-05T16:29:40.707Z,0.93
2022-10-05T16:32:15.111Z,1.10
2022-10-05T16:35:01.309Z,1.13
2022-10-05T16:37:41.129Z,1.20
2022-10-05T16:40:21.085Z,1.00
2022-10-05T16:43:02.303Z,1.00
2022-10-05T16:45:52.995Z,1.10
2022-10-05T16:48:27.387Z,1.20
2022-10-05T16:51:19.646Z,1.50
2022-10-05T16:54:02.897Z,1.40
2022-10-05T16:56:42.318Z,1.17
2022-10-05T17:00:15.980Z,1.27
2022-10-05T17:03:11.239Z,1.33
2022-10-05T17:06:02.204Z,1.10
2022-10-05T17:09:09.782Z,1.00
2022-10-05T17:11:55.161Z,1.27
2022-10-05T17:14:38.429Z,1.30
2022-10-05T17:17:33.910Z,1.10
2022-10-05T17:20:24.531Z,1.40
2022-10-05T17:22:59.262Z,0.80
2022-10-05T17:25:39.895Z,1.20
2022-10-05T17:28:24.249Z,1.30
2022-10-05T17:31:17.492Z,1.53
2022-10-05T17:34:27.206Z,1.60
2022-10-05T17:36:59.879Z,1.30
2022-10-05T17:39:57.126Z,1.60
2022-10-05T17:42:48.755Z,1.70
2022-10-05T17:45:54.677Z,1.60
2022-10-05T17:49:06.733Z,1.70
2022-10-05T17:52:38.841Z,1.40
2022-10-05T17:55:45.561Z,1.90
2022-10-05T17:59:03.069Z,2.07
2022-10-05T18:01:36.915Z,1.53
2022-10-05T18:04:42.647Z,1.53
2022-10-05T18:07:24.308Z,1.90
2022-10-05T18:10:17.229Z,1.97
2022-10-05T18:12:51.727Z,1.47
2022-10-05T18:15:50.150Z,1.23
2022-10-05T18:18:58.708Z,1.20
2022-10-05T18:21:37.705Z,2.00
2022-10-05T18:24:55.741Z,2.33
2022-10-05T18:28:24.861Z,1.80
2022-10-05T18:31:09.876Z,1.27
2022-10-05T18:34:21.429Z,1.73
2022-10-05T18:37:27.700Z,1.20
2022-10-05T18:40:21.658Z,2.37
2022-10-05T18:42:58.568Z,2.23
2022-10-05T18:45:38.821Z,2.30
2022-10-05T18:48:22.486Z,2.30
2022-10-05T18:51:00.372Z,2.33
2022-10-05T18:53:41.687Z,1.37
2022-10-05T18:56:25.730Z,1.90
2022-10-05T18:59:11.122Z,2.43
2022-10-05T19:02:08.383Z,1.30
2022-10-05T19:04:53.559Z,1.37
2022-10-05T19:07:33.309Z,1.50
2022-10-05T19:10:15.799Z,1.30
2022-10-05T19:13:06.718Z,1.20
2022-10-05T19:15:45.761Z,1.20
2022-10-05T19:18:52.014Z,1.40
2022-10-05T19:21:34.391Z,1.30
2022-10-05T19:24:42.610Z,1.13
2022-10-05T19:27:22.978Z,1.20
2022-10-05T19:30:22.912Z,1.33
2022-10-05T19:33:25.934Z,1.27
2022-10-05T19:36:15.413Z,1.30
2022-10-05T19:38:59.871Z,1.50
2022-10-05T19:41:42.419Z,1.50
2022-10-05T19:44:21.749Z,1.40
2022-10-05T19:47:01.382Z,1.07
2022-10-05T19:49:49.723Z,1.33
2022-10-05T19:52:31.087Z,1.20
2022-10-05T19:55:12.093Z,1.03
2022-10-05T19:57:48.839Z,2.43
2022-10-05T20:00:24.637Z,2.30
2022-10-05T20:03:08.839Z,2.50
2022-10-05T20:05:37.717Z,2.43
2022-10-05T20:08:15.158Z,1.70
2022-10-05T20:10:43.286Z,1.20
2022-10-05T20:13:21.958Z,1.60
2022-10-05T20:16:26.565Z,1.40
2022-10-05T20:19:12.309Z,1.27
2022-10-05T20:21:45.943Z,1.33
2022-10-05T20:24:18.009Z,4.10
2022-10-05T20:27:16.094Z,2.93
2022-10-05T20:29:47.039Z,1.43
2022-10-05T20:32:17.781Z,1.40
2022-10-05T20:34:48.358Z,1.90
2022-10-05T20:37:19.484Z,2.23
2022-10-05T20:39:50.198Z,1.50
2022-10-05T20:42:19.682Z,1.30
2022-10-05T20:44:52.905Z,2.30
2022-10-05T20:47:24.018Z,3.77
2022-10-05T20:49:53.292Z,1.83
2022-10-05T20:52:22.373Z,1.77
2022-10-05T20:54:58.763Z,1.20
2022-10-05T20:57:27.226Z,1.40
2022-10-05T20:59:55.254Z,1.20
2022-10-05T21:02:23.286Z,1.20
2022-10-05T21:04:51.588Z,1.20
2022-10-05T21:07:20.848Z,1.20
2022-10-05T21:09:48.916Z,1.60
2022-10-05T21:12:18.299Z,1.23
2022-10-05T21:14:47.372Z,1.60
2022-10-05T21:17:15.773Z,1.37
2022-10-05T21:19:43.774Z,1.40
2022-10-05T21:22:11.825Z,1.30
2022-10-05T21:24:41.850Z,1.80
2022-10-05T21:27:10.536Z,1.40
2022-10-05T21:29:41.186Z,1.50
2022-10-05T21:32:11.564Z,1.30
2022-10-05T21:34:40.682Z,1.50
2022-10-05T21:37:09.225Z,1.40
2022-10-05T21:39:37.295Z,1.50
2022-10-05T21:42:05.567Z,1.53
2022-10-05T21:44:33.624Z,1.40
2022-10-05T21:47:04.205Z,1.47
2022-10-05T21:49:32.522Z,1.23
2022-10-05T21:52:02.339Z,1.33
2022-10-05T21:54:30.851Z,1.40
2022-10-05T21:57:00.011Z,1.53
2022-10-05T21:59:32.438Z,1.30
2022-10-05T22:02:02.262Z,1.50
2022-10-05T22:04:30.374Z,1.40
2022-10-05T22:06:58.598Z,1.40
2022-10-05T22:09:26.922Z,1.43
2022-10-05T22:11:54.999Z,1.53
2022-10-05T22:14:23.895Z,1.57
2022-10-05T22:16:53.971Z,1.20
2022-10-05T22:19:23.861Z,1.20
2022-10-05T22:21:51.867Z,1.10
2022-10-05T22:24:22.788Z,1.20
2022-10-05T22:26:52.394Z,1.20
2022-10-05T22:29:21.183Z,1.33
2022-10-05T22:31:49.544Z,1.53
2022-10-05T22:34:18.826Z,1.43
2022-10-05T22:36:48.674Z,1.23
2022-10-05T22:39:17.751Z,1.40
2022-10-05T22:41:46.322Z,1.50
2022-10-05T22:44:14.371Z,1.20
2022-10-05T22:46:42.410Z,1.30
2022-10-05T22:49:10.552Z,1.37
2022-10-05T22:51:38.599Z,1.40
2022-10-05T22:54:08.131Z,1.30
2022-10-05T22:56:36.194Z,1.40
2022-10-05T22:59:04.255Z,1.77
2022-10-05T23:01:32.425Z,1.83
2022-10-05T23:04:00.500Z,1.50
2022-10-05T23:06:28.608Z,1.43
2022-10-05T23:08:57.348Z,1.43
2022-10-05T23:11:30.067Z,1.37
2022-10-05T23:13:59.804Z,1.50
2022-10-05T23:16:29.712Z,1.30
2022-10-05T23:18:58.305Z,1.40
2022-10-05T23:21:29.449Z,1.77
2022-10-05T23:23:57.476Z,1.30
2022-10-05T23:26:27.248Z,1.20
2022-10-05T23:28:55.313Z,1.60
2022-10-05T23:31:27.082Z,1.30
2022-10-05T23:33:55.541Z,1.50
2022-10-05T23:36:25.814Z,1.93
2022-10-05T23:38:54.351Z,1.27
2022-10-05T23:41:22.789Z,1.50
2022-10-05T23:43:54.630Z,1.30
2022-10-05T23:46:22.971Z,1.10
2022-10-05T23:48:51.363Z,1.50
2022-10-05T23:51:19.627Z,1.37
2022-10-05T23:53:47.631Z,1.27
2022-10-05T23:56:15.723Z,1.50
2022-10-05T23:58:44.888Z,1.67
